Time;durP1;ratioP1;P1;durP2;ratioP2;P2;SDS_P1;SDS_P2;PMS_P1;PMS_P2;Temp;Humidity;BMP_temperature;BMP_pressure;BME280_temperature;BME280_humidity;BME280_pressure;Samples;Min_cycle;Max_cycle;Signal;HPM_P1;HPM_P2
2023/01/21 00:00:41;;;;;;;54.60;27.73;;;-0.60;99.90;;;;;;5051901;28;20142;-46
2023/01/21 00:03:07;;;;;;;55.53;27.52;;;-0.50;99.90;;;;;;5060446;28;20053;-45
2023/01/21 00:05:34;;;;;;;55.08;27.95;;;-0.60;99.90;;;;;;5060701;28;20088;-46
2023/01/21 00:08:01;;;;;;;54.20;27.15;;;-0.60;99.90;;;;;;5074994;28;20052;-48
2023/01/21 00:10:29;;;;;;;58.17;29.60;;;-0.60;99.90;;;;;;5066906;28;20100;-43
2023/01/21 00:12:56;;;;;;;51.13;26.50;;;-0.60;99.90;;;;;;5070490;28;20435;-47
2023/01/21 00:15:23;;;;;;;55.50;28.08;;;-0.60;99.90;;;;;;5070926;28;20096;-44
2023/01/21 00:17:52;;;;;;;57.85;29.48;;;-0.60;99.90;;;;;;5056510;28;20053;-48
2023/01/21 00:20:19;;;;;;;55.38;28.27;;;-0.60;99.90;;;;;;5059884;28;20048;-51
2023/01/21 00:22:46;;;;;;;62.67;29.60;;;-0.60;99.90;;;;;;5057436;28;20065;-49
2023/01/21 00:25:12;;;;;;;65.40;30.13;;;-0.60;99.90;;;;;;5068638;28;20086;-47
2023/01/21 00:27:41;;;;;;;63.53;29.85;;;-0.60;99.90;;;;;;5073381;28;20099;-44
2023/01/21 00:30:09;;;;;;;61.22;30.02;;;-0.60;99.90;;;;;;5069268;28;20049;-49
2023/01/21 00:32:36;;;;;;;67.47;31.20;;;-0.50;99.90;;;;;;5074868;28;20044;-47
2023/01/21 00:35:03;;;;;;;65.80;30.30;;;-0.50;99.90;;;;;;5070846;28;20484;-49
2023/01/21 00:37:30;;;;;;;64.50;30.85;;;-0.50;99.90;;;;;;5071783;28;20083;-48
2023/01/21 00:39:57;;;;;;;63.45;30.83;;;-0.50;99.90;;;;;;5068746;28;20135;-47
2023/01/21 00:42:24;;;;;;;64.68;30.92;;;-0.40;99.90;;;;;;5070928;28;20476;-51
2023/01/21 00:44:52;;;;;;;69.55;32.88;;;-0.40;99.90;;;;;;5061050;28;20053;-49
2023/01/21 00:47:19;;;;;;;66.55;31.27;;;-0.20;99.90;;;;;;5061001;28;20119;-49
2023/01/21 00:49:46;;;;;;;67.18;31.02;;;-0.40;99.90;;;;;;5056076;28;20549;-44
2023/01/21 00:52:12;;;;;;;68.40;32.38;;;-0.40;99.90;;;;;;5056352;28;20088;-51
2023/01/21 00:54:39;;;;;;;69.97;31.13;;;-0.40;99.90;;;;;;5056241;28;20501;-49
2023/01/21 00:57:07;;;;;;;69.20;32.10;;;-0.40;99.90;;;;;;5065627;28;20063;-48
2023/01/21 00:59:34;;;;;;;76.25;35.13;;;-0.40;99.90;;;;;;5066028;28;20049;-47
2023/01/21 01:02:02;;;;;;;72.72;34.38;;;-0.40;99.90;;;;;;5067283;28;20053;-50
2023/01/21 01:04:28;;;;;;;72.18;32.25;;;-0.30;99.90;;;;;;5072834;28;20098;-44
2023/01/21 01:06:56;;;;;;;69.57;32.63;;;-0.40;99.90;;;;;;5060798;28;20500;-49
2023/01/21 01:09:22;;;;;;;73.38;34.08;;;-0.30;99.90;;;;;;5068903;28;20045;-51
2023/01/21 01:11:49;;;;;;;71.00;33.80;;;-0.40;99.90;;;;;;5072268;28;20140;-51
2023/01/21 01:14:16;;;;;;;72.55;32.35;;;-0.40;99.90;;;;;;5067412;28;20091;-51
2023/01/21 01:16:43;;;;;;;66.18;33.92;;;-0.20;99.90;;;;;;5067708;28;20413;-47
2023/01/21 01:19:11;;;;;;;72.93;31.83;;;-0.30;99.90;;;;;;5055589;28;20080;-49
2023/01/21 01:21:38;;;;;;;72.22;32.08;;;-0.30;99.90;;;;;;5068601;28;20084;-52
2023/01/21 01:24:05;;;;;;;71.25;31.50;;;-0.30;99.90;;;;;;5063860;28;20471;-48
2023/01/21 01:26:34;;;;;;;73.45;32.20;;;-0.30;99.90;;;;;;5065869;28;20053;-51
2023/01/21 01:29:01;;;;;;;68.90;33.42;;;-0.30;99.90;;;;;;5054291;28;20044;-51
2023/01/21 01:31:27;;;;;;;75.97;35.13;;;-0.30;99.90;;;;;;5069055;28;20053;-48
2023/01/21 01:33:54;;;;;;;77.03;33.45;;;-0.30;99.90;;;;;;5054932;28;20049;-48
2023/01/21 01:36:23;;;;;;;79.55;36.58;;;-0.30;99.90;;;;;;5055395;28;20139;-49
2023/01/21 01:38:50;;;;;;;76.60;35.90;;;-0.30;99.90;;;;;;5054166;28;20053;-54
2023/01/21 01:41:18;;;;;;;86.57;35.88;;;-0.20;99.90;;;;;;5071115;28;21258;-50
2023/01/21 01:43:56;;;;;;;74.72;34.03;;;-0.20;99.90;;;;;;5053508;28;20068;-43
2023/01/21 01:46:24;;;;;;;85.30;37.10;;;-0.20;99.90;;;;;;5069575;28;20057;-48
2023/01/21 01:48:52;;;;;;;79.32;34.72;;;-0.20;99.90;;;;;;5066889;28;20076;-51
2023/01/21 01:51:21;;;;;;;81.50;35.40;;;-0.20;99.90;;;;;;5063620;28;20052;-52
2023/01/21 01:53:49;;;;;;;73.45;32.15;;;-0.20;99.90;;;;;;5057010;28;20088;-52
2023/01/21 01:56:16;;;;;;;79.28;35.20;;;-0.20;99.90;;;;;;5067537;28;20072;-50
2023/01/21 01:58:43;;;;;;;74.55;34.15;;;-0.20;99.90;;;;;;5053743;28;20115;-50
2023/01/21 02:01:10;;;;;;;79.47;34.63;;;-0.10;99.90;;;;;;5066557;28;20076;-49
2023/01/21 02:03:44;;;;;;;83.18;32.47;;;-0.20;99.90;;;;;;5062905;28;20447;-53
2023/01/21 02:06:11;;;;;;;80.38;33.72;;;-0.20;99.90;;;;;;5060278;28;20053;-50
2023/01/21 02:08:39;;;;;;;81.97;35.15;;;-0.10;99.90;;;;;;5068323;28;20098;-52
2023/01/21 02:11:13;;;;;;;82.63;33.75;;;-0.20;99.90;;;;;;5068975;28;20052;-49
2023/01/21 02:13:40;;;;;;;75.97;33.55;;;-0.20;99.90;;;;;;5054313;28;20077;-52
2023/01/21 02:16:21;;;;;;;79.22;34.40;;;-0.20;99.90;;;;;;5055108;28;20146;-54
2023/01/21 02:18:49;;;;;;;86.10;35.38;;;-0.20;99.90;;;;;;5063453;28;20484;-52
2023/01/21 02:21:37;;;;;;;76.68;33.85;;;-0.20;99.90;;;;;;5071793;28;20076;-50
2023/01/21 02:24:43;;;;;;;81.28;33.85;;;-0.20;99.90;;;;;;5067263;28;20053;-46
2023/01/21 02:27:35;;;;;;;73.57;31.98;;;-0.10;99.90;;;;;;5052771;28;20106;-49
2023/01/21 02:30:28;;;;;;;86.00;33.42;;;-0.10;99.90;;;;;;5059198;28;20044;-53
2023/01/21 02:33:19;;;;;;;76.30;32.25;;;-0.10;99.90;;;;;;5053149;28;20092;-48
2023/01/21 02:35:48;;;;;;;83.78;33.83;;;-0.10;99.90;;;;;;5052577;28;20049;-49
2023/01/21 02:38:18;;;;;;;85.93;35.10;;;-0.10;99.90;;;;;;5069948;28;20083;-51
2023/01/21 02:40:49;;;;;;;81.53;33.40;;;-0.10;99.90;;;;;;5059557;28;20149;-49
2023/01/21 02:43:18;;;;;;;;;;;-0.10;99.90;;;;;;5060572;28;20095;-46
2023/01/21 02:45:48;;;;;;;76.35;31.80;;;-0.10;99.90;;;;;;5054132;28;20302;-48
2023/01/21 02:48:16;;;;;;;92.85;33.95;;;-0.10;99.90;;;;;;5054049;28;20507;-49
2023/01/21 02:50:45;;;;;;;92.70;35.15;;;-0.10;99.90;;;;;;5067737;28;20076;-49
2023/01/21 02:53:23;;;;;;;103.65;34.63;;;-0.10;99.90;;;;;;5065371;28;20056;-47
2023/01/21 02:55:50;;;;;;;86.00;34.95;;;-0.10;99.90;;;;;;5067173;28;20114;-51
2023/01/21 02:58:17;;;;;;;92.88;34.47;;;-0.10;99.90;;;;;;5060291;28;20052;-48
2023/01/21 03:00:50;;;;;;;95.45;34.63;;;-0.10;99.90;;;;;;5053682;28;20087;-49
2023/01/21 03:03:34;;;;;;;93.07;32.90;;;-0.10;99.90;;;;;;5065562;28;20479;-52
2023/01/21 03:06:18;;;;;;;101.88;35.25;;;0.00;99.90;;;;;;5051223;28;20393;-44
2023/01/21 03:08:47;;;;;;;88.85;33.40;;;0.00;99.90;;;;;;5065293;28;20055;-46
2023/01/21 03:11:15;;;;;;;83.88;33.35;;;-0.10;99.90;;;;;;5067340;28;20128;-49
2023/01/21 03:19:14;;;;;;;101.28;33.60;;;0.00;99.90;;;;;;5061183;28;20049;-51
2023/01/21 03:21:42;;;;;;;92.65;33.72;;;0.10;99.90;;;;;;5052302;28;20087;-50
2023/01/21 03:24:08;;;;;;;90.93;33.78;;;0.00;99.90;;;;;;5052692;28;20103;-50
2023/01/21 03:26:37;;;;;;;76.05;31.02;;;0.00;99.90;;;;;;5070113;28;20079;-52
2023/01/21 03:29:06;;;;;;;83.15;32.60;;;0.00;99.90;;;;;;5058334;28;20083;-52
2023/01/21 03:31:33;;;;;;;78.00;30.13;;;0.10;99.90;;;;;;5065144;28;20102;-52
2023/01/21 03:34:06;;;;;;;89.80;33.33;;;0.10;99.90;;;;;;5067701;28;20041;-51
2023/01/21 03:36:37;;;;;;;83.25;31.88;;;0.10;99.90;;;;;;5052037;28;20049;-51
2023/01/21 03:39:08;;;;;;;86.82;31.95;;;0.10;99.90;;;;;;5051508;28;20045;-52
2023/01/21 03:41:38;;;;;;;77.80;32.10;;;0.10;99.90;;;;;;5052882;28;20080;-49
2023/01/21 03:44:05;;;;;;;80.88;31.85;;;0.10;99.90;;;;;;5056829;28;20083;-48
2023/01/21 03:46:35;;;;;;;87.18;33.33;;;0.20;99.90;;;;;;5062453;28;20489;-49
2023/01/21 03:49:04;;;;;;;89.45;34.22;;;0.20;99.90;;;;;;5052250;28;20444;-53
2023/01/21 03:51:32;;;;;;;81.82;34.38;;;0.20;99.90;;;;;;5052518;28;20459;-48
2023/01/21 03:53:59;;;;;;;88.22;33.22;;;0.20;99.90;;;;;;5052909;28;20139;-46
2023/01/21 03:56:28;;;;;;;84.00;32.65;;;0.20;99.90;;;;;;5052548;28;20478;-52
2023/01/21 03:58:54;;;;;;;77.15;33.42;;;0.20;99.90;;;;;;5057457;28;20454;-50
2023/01/21 04:01:21;;;;;;;72.30;31.40;;;0.20;99.90;;;;;;5065756;28;20087;-49
2023/01/21 04:03:48;;;;;;;74.43;32.40;;;0.20;99.90;;;;;;5068820;28;20106;-46
2023/01/21 04:06:15;;;;;;;66.95;30.15;;;0.20;99.90;;;;;;5052976;28;20554;-46
2023/01/21 04:08:42;;;;;;;80.18;33.15;;;0.20;99.90;;;;;;5054091;28;20053;-54
2023/01/21 04:11:09;;;;;;;71.38;31.05;;;0.20;99.90;;;;;;5069190;28;20137;-51
2023/01/21 04:13:37;;;;;;;81.70;32.95;;;0.20;99.90;;;;;;5068273;28;20091;-49
2023/01/21 04:16:04;;;;;;;75.00;31.83;;;0.20;99.90;;;;;;5068768;28;20068;-46
2023/01/21 04:18:31;;;;;;;75.10;33.00;;;0.20;99.90;;;;;;5063235;28;20053;-47
2023/01/21 04:20:58;;;;;;;69.65;29.35;;;0.20;99.90;;;;;;5052383;28;20052;-51
2023/01/21 04:23:24;;;;;;;75.47;32.45;;;0.20;99.90;;;;;;5064550;28;20125;-50
2023/01/21 04:25:51;;;;;;;70.18;31.95;;;0.20;99.90;;;;;;5064160;28;20049;-51
2023/01/21 04:28:18;;;;;;;57.50;27.55;;;0.20;99.90;;;;;;5056554;28;20072;-54
2023/01/21 04:30:48;;;;;;;63.97;29.52;;;0.20;99.90;;;;;;5070448;28;20084;-54
2023/01/21 04:33:14;;;;;;;66.28;29.90;;;0.20;99.90;;;;;;5071189;28;20105;-50
2023/01/21 04:35:41;;;;;;;61.97;28.35;;;0.20;99.90;;;;;;5071937;28;20480;-50
2023/01/21 04:38:08;;;;;;;56.53;26.02;;;0.20;99.90;;;;;;5067349;28;20073;-49
2023/01/21 04:40:35;;;;;;;63.47;29.73;;;0.20;99.90;;;;;;5051839;28;20081;-51
2023/01/21 04:43:02;;;;;;;63.38;28.63;;;0.10;99.90;;;;;;5065755;28;20083;-47
2023/01/21 04:45:28;;;;;;;54.05;25.83;;;0.10;99.90;;;;;;5071094;28;20509;-49
2023/01/21 04:47:56;;;;;;;53.22;25.00;;;0.10;99.90;;;;;;5056483;28;20044;-54
2023/01/21 04:50:23;;;;;;;61.53;28.17;;;0.10;99.90;;;;;;5052487;28;20102;-52
2023/01/21 04:52:50;;;;;;;61.42;29.15;;;0.10;99.90;;;;;;5061113;28;20206;-53
2023/01/21 04:55:17;;;;;;;60.47;27.25;;;0.10;99.90;;;;;;5055473;28;20523;-50
2023/01/21 04:57:44;;;;;;;63.00;27.85;;;0.20;99.90;;;;;;5065799;28;20046;-47
2023/01/21 05:00:11;;;;;;;67.82;31.08;;;0.10;99.90;;;;;;5062803;28;20064;-51
2023/01/21 05:02:38;;;;;;;68.32;28.88;;;0.10;99.90;;;;;;5064249;28;20052;-50
2023/01/21 05:05:08;;;;;;;60.88;29.15;;;0.20;99.90;;;;;;5054235;28;20126;-53
2023/01/21 05:07:34;;;;;;;57.67;28.98;;;0.10;99.90;;;;;;5054035;28;20077;-53
2023/01/21 05:10:01;;;;;;;61.90;29.55;;;0.10;99.90;;;;;;5069967;28;20508;-52
2023/01/21 05:12:28;;;;;;;64.28;28.77;;;0.10;99.90;;;;;;5071625;28;20075;-47
2023/01/21 05:14:56;;;;;;;71.47;31.27;;;0.10;99.90;;;;;;5070457;28;20594;-54
2023/01/21 05:17:23;;;;;;;65.30;29.95;;;0.10;99.90;;;;;;5071003;28;20075;-53
2023/01/21 05:19:50;;;;;;;68.30;29.17;;;0.00;99.90;;;;;;5054889;28;20080;-50
2023/01/21 05:22:18;;;;;;;63.40;29.77;;;0.00;99.90;;;;;;5060204;28;20061;-51
2023/01/21 05:24:45;;;;;;;72.35;30.65;;;0.00;99.90;;;;;;5073447;28;20083;-40
2023/01/21 05:27:12;;;;;;;65.32;29.85;;;0.00;99.90;;;;;;5072626;28;20080;-48
2023/01/21 05:29:39;;;;;;;58.03;28.38;;;0.00;99.90;;;;;;5074685;28;20450;-48
2023/01/21 05:32:06;;;;;;;57.70;26.67;;;-0.10;99.90;;;;;;5072917;28;20098;-49
2023/01/21 05:34:33;;;;;;;59.60;28.05;;;-0.10;99.90;;;;;;5074506;28;20083;-52
2023/01/21 05:37:00;;;;;;;59.38;28.08;;;-0.20;99.90;;;;;;5074376;28;20052;-52
2023/01/21 05:39:28;;;;;;;52.92;27.02;;;-0.20;99.90;;;;;;5064675;28;20044;-52
2023/01/21 05:41:55;;;;;;;60.53;26.65;;;-0.20;99.90;;;;;;5054181;28;20101;-51
2023/01/21 05:44:21;;;;;;;57.92;28.30;;;-0.20;99.90;;;;;;5059296;28;20131;-49
2023/01/21 05:46:48;;;;;;;61.15;27.65;;;-0.30;99.90;;;;;;5074457;28;20098;-52
2023/01/21 05:49:15;;;;;;;57.75;28.08;;;-0.20;99.90;;;;;;5073309;28;20189;-54
2023/01/21 05:51:42;;;;;;;65.18;28.92;;;-0.20;99.90;;;;;;5071599;28;20048;-49
2023/01/21 05:54:09;;;;;;;54.83;26.63;;;-0.20;99.90;;;;;;5067747;28;20052;-49
2023/01/21 05:56:37;;;;;;;61.22;27.92;;;-0.20;99.90;;;;;;5066225;28;20044;-53
2023/01/21 05:59:04;;;;;;;61.30;28.73;;;-0.20;99.90;;;;;;5060463;28;20049;-48
2023/01/21 06:01:30;;;;;;;58.30;28.48;;;-0.20;99.90;;;;;;5066330;28;20480;-52
2023/01/21 06:03:57;;;;;;;61.08;27.65;;;-0.30;99.90;;;;;;5058959;28;20096;-51
2023/01/21 06:06:24;;;;;;;58.97;26.55;;;-0.20;99.90;;;;;;5069845;28;20040;-49
2023/01/21 06:08:51;;;;;;;66.45;29.35;;;-0.20;99.90;;;;;;5071142;28;20113;-51
2023/01/21 06:11:18;;;;;;;70.70;28.95;;;-0.20;99.90;;;;;;5075227;28;20045;-56
2023/01/21 06:13:46;;;;;;;67.60;30.27;;;-0.20;99.90;;;;;;5071212;28;20052;-48
2023/01/21 06:16:13;;;;;;;72.53;32.08;;;-0.20;99.90;;;;;;5073517;28;20060;-51
2023/01/21 06:18:39;;;;;;;75.25;32.17;;;-0.20;99.90;;;;;;5073322;28;20530;-56
2023/01/21 06:21:06;;;;;;;73.88;33.08;;;-0.20;99.90;;;;;;5063344;28;20098;-51
2023/01/21 06:23:33;;;;;;;93.68;34.40;;;-0.20;99.90;;;;;;5072533;28;20041;-53
2023/01/21 06:26:00;;;;;;;76.05;33.35;;;-0.20;99.90;;;;;;5052738;28;20509;-52
2023/01/21 06:28:27;;;;;;;77.95;33.53;;;-0.20;99.90;;;;;;5071500;28;20476;-52
2023/01/21 06:30:55;;;;;;;69.20;30.83;;;-0.20;99.90;;;;;;5070810;28;20080;-55
2023/01/21 06:33:22;;;;;;;79.72;32.42;;;-0.20;99.90;;;;;;5055702;28;20049;-54
2023/01/21 06:35:49;;;;;;;72.32;32.33;;;-0.10;99.90;;;;;;5052594;28;20045;-52
2023/01/21 06:38:15;;;;;;;70.72;31.85;;;-0.10;99.90;;;;;;5067544;28;20094;-53
2023/01/21 06:40:43;;;;;;;75.07;33.58;;;-0.20;99.90;;;;;;5070752;28;20056;-53
2023/01/21 06:43:10;;;;;;;68.40;31.08;;;-0.20;99.90;;;;;;5064138;28;20094;-55
2023/01/21 06:45:36;;;;;;;71.28;34.15;;;-0.10;99.90;;;;;;5066975;28;20143;-49
2023/01/21 06:48:05;;;;;;;74.00;32.97;;;-0.10;99.90;;;;;;5059094;28;20137;-54
2023/01/21 06:50:32;;;;;;;74.80;32.50;;;-0.20;99.90;;;;;;5059577;28;20551;-47
2023/01/21 06:52:59;;;;;;;72.57;32.65;;;-0.20;99.90;;;;;;5062294;28;20080;-53
2023/01/21 06:55:25;;;;;;;70.30;33.28;;;-0.20;99.90;;;;;;5052827;28;20084;-55
2023/01/21 06:57:52;;;;;;;68.22;31.67;;;-0.10;99.90;;;;;;5053544;28;20045;-52
2023/01/21 07:00:20;;;;;;;64.38;31.08;;;-0.20;99.90;;;;;;5053951;28;20157;-55
2023/01/21 07:02:47;;;;;;;61.80;29.58;;;-0.10;99.90;;;;;;5052790;28;20053;-55
2023/01/21 07:05:15;;;;;;;66.57;30.38;;;-0.10;99.90;;;;;;5053161;28;20045;-54
2023/01/21 07:07:42;;;;;;;70.80;31.48;;;-0.10;99.90;;;;;;5060757;28;20040;-54
2023/01/21 07:10:10;;;;;;;73.13;31.08;;;0.00;99.90;;;;;;5055015;28;20094;-56
2023/01/21 07:12:37;;;;;;;62.03;30.33;;;-0.10;99.90;;;;;;5065368;28;20061;-54
2023/01/21 07:15:05;;;;;;;70.18;32.08;;;-0.10;99.90;;;;;;5070442;28;20131;-55
2023/01/21 07:17:32;;;;;;;62.00;30.33;;;-0.10;99.90;;;;;;5072811;28;20080;-53
2023/01/21 07:19:58;;;;;;;60.95;29.63;;;0.00;99.90;;;;;;5069221;28;20057;-53
2023/01/21 07:22:26;;;;;;;60.35;29.23;;;0.00;99.90;;;;;;5071514;28;20456;-56
2023/01/21 07:24:53;;;;;;;60.40;30.00;;;0.00;99.90;;;;;;5063833;28;20075;-53
2023/01/21 07:27:20;;;;;;;61.20;30.20;;;0.00;99.90;;;;;;5071334;28;20048;-52
2023/01/21 07:29:47;;;;;;;52.80;26.27;;;0.10;99.90;;;;;;5065797;28;20128;-52
2023/01/21 07:32:14;;;;;;;62.15;30.20;;;0.00;99.90;;;;;;5070275;28;20354;-52
2023/01/21 07:34:40;;;;;;;52.97;27.70;;;0.10;99.90;;;;;;5068807;28;20060;-55
2023/01/21 07:37:07;;;;;;;56.28;26.90;;;0.00;99.90;;;;;;5066544;28;20049;-55
2023/01/21 07:39:35;;;;;;;57.08;27.30;;;0.00;99.90;;;;;;5061438;28;20084;-54
2023/01/21 07:42:02;;;;;;;58.50;27.70;;;0.00;99.90;;;;;;5064953;28;20502;-55
2023/01/21 07:44:29;;;;;;;58.85;27.55;;;0.20;99.90;;;;;;5062966;28;20171;-55
2023/01/21 07:46:56;;;;;;;62.38;29.67;;;0.00;99.90;;;;;;5057446;28;20133;-54
2023/01/21 07:49:23;;;;;;;56.47;27.83;;;0.10;99.90;;;;;;5067283;28;20076;-52
2023/01/21 07:51:49;;;;;;;65.03;30.70;;;0.20;99.90;;;;;;5065020;28;20091;-50
2023/01/21 07:54:16;;;;;;;69.22;30.38;;;0.10;99.90;;;;;;5068199;28;20048;-53
2023/01/21 07:56:44;;;;;;;61.25;29.00;;;0.10;99.90;;;;;;5069851;28;20040;-52
2023/01/21 07:59:12;;;;;;;64.65;29.10;;;0.10;99.90;;;;;;5059612;28;20080;-54
2023/01/21 08:01:39;;;;;;;69.63;30.35;;;0.30;99.90;;;;;;5072762;28;20040;-53
2023/01/21 08:04:07;;;;;;;64.13;28.90;;;0.10;99.90;;;;;;5063003;28;20044;-56
2023/01/21 08:06:36;;;;;;;60.28;26.77;;;0.20;99.90;;;;;;5066364;28;20404;-54
2023/01/21 08:09:03;;;;;;;64.88;29.52;;;0.20;99.90;;;;;;5065622;28;20569;-55
2023/01/21 08:11:30;;;;;;;75.55;32.80;;;0.10;99.90;;;;;;5058828;28;20072;-52
2023/01/21 08:13:58;;;;;;;69.57;30.17;;;0.20;99.90;;;;;;5062951;28;20139;-53
2023/01/21 08:16:25;;;;;;;68.18;30.52;;;0.20;99.90;;;;;;5061699;28;20102;-51
2023/01/21 08:18:51;;;;;;;64.18;30.52;;;0.20;99.90;;;;;;5058780;28;20099;-55
2023/01/21 08:21:19;;;;;;;74.13;32.15;;;0.20;99.90;;;;;;5059776;28;20489;-53
2023/01/21 08:23:46;;;;;;;62.05;27.48;;;0.40;99.90;;;;;;5063583;28;20045;-48
2023/01/21 08:26:13;;;;;;;64.45;29.52;;;0.40;99.90;;;;;;5064056;28;20675;-50
2023/01/21 08:28:40;;;;;;;74.40;33.35;;;0.30;99.90;;;;;;5072557;28;20060;-55
2023/01/21 08:31:09;;;;;;;78.45;34.33;;;0.30;99.90;;;;;;5070079;28;20044;-55
2023/01/21 08:33:35;;;;;;;65.40;29.92;;;0.30;99.90;;;;;;5065868;28;20080;-55
2023/01/21 08:36:02;;;;;;;72.07;31.98;;;0.30;99.90;;;;;;5076949;28;20068;-53
2023/01/21 08:38:29;;;;;;;74.15;32.20;;;0.30;99.90;;;;;;5069077;28;20080;-54
2023/01/21 08:40:57;;;;;;;76.03;33.53;;;0.30;99.90;;;;;;5071768;28;20136;-52
2023/01/21 08:43:23;;;;;;;78.22;33.95;;;0.30;99.90;;;;;;5066598;28;20401;-54
2023/01/21 08:45:50;;;;;;;74.00;33.15;;;0.40;99.90;;;;;;5071481;28;20044;-54
2023/01/21 08:48:18;;;;;;;72.40;33.58;;;0.40;99.90;;;;;;5069330;28;20573;-54
2023/01/21 08:50:45;;;;;;;70.55;32.63;;;0.40;99.90;;;;;;5067619;28;20143;-56
2023/01/21 08:53:12;;;;;;;78.18;34.60;;;0.40;99.90;;;;;;5069943;28;20067;-56
2023/01/21 08:55:39;;;;;;;73.60;33.70;;;0.40;99.90;;;;;;5077770;28;20135;-54
2023/01/21 08:58:06;;;;;;;83.20;35.70;;;0.50;99.90;;;;;;5064438;28;20554;-55
2023/01/21 09:00:33;;;;;;;80.70;35.78;;;0.50;99.90;;;;;;5070289;28;20097;-56
2023/01/21 09:02:59;;;;;;;78.10;35.08;;;0.50;99.90;;;;;;5083478;28;20134;-55
2023/01/21 09:05:28;;;;;;;83.72;37.47;;;0.60;99.90;;;;;;5065860;28;20409;-51
2023/01/21 09:07:54;;;;;;;76.22;34.30;;;0.60;99.90;;;;;;5071885;28;20570;-54
2023/01/21 09:13:05;;;;;;;73.68;36.20;;;0.60;99.90;;;;;;5084142;28;20080;-51
2023/01/21 09:15:32;;;;;;;74.03;34.25;;;0.60;99.90;;;;;;5074695;28;20106;-56
2023/01/21 09:17:59;;;;;;;77.97;35.47;;;0.70;99.90;;;;;;5065366;28;20045;-56
2023/01/21 09:20:26;;;;;;;68.95;33.90;;;0.70;99.90;;;;;;5076154;28;20049;-56
2023/01/21 09:22:54;;;;;;;79.45;35.72;;;0.70;99.90;;;;;;5068918;28;20132;-57
2023/01/21 09:25:20;;;;;;;79.43;35.72;;;0.70;99.90;;;;;;5056623;28;20098;-56
2023/01/21 09:27:47;;;;;;;69.72;33.75;;;0.70;99.90;;;;;;5071564;28;20086;-55
2023/01/21 09:30:15;;;;;;;79.18;35.33;;;0.70;99.90;;;;;;5069541;28;20556;-57
2023/01/21 09:32:42;;;;;;;73.13;32.30;;;0.70;99.90;;;;;;5072905;28;20760;-57
2023/01/21 09:35:09;;;;;;;73.45;36.17;;;0.70;99.90;;;;;;5052937;28;20110;-57
2023/01/21 09:37:37;;;;;;;80.55;36.90;;;0.70;99.90;;;;;;5070963;28;20110;-56
2023/01/21 09:40:06;;;;;;;66.85;35.08;;;0.80;99.90;;;;;;5069617;28;20140;-55
2023/01/21 09:42:33;;;;;;;63.65;31.67;;;0.80;99.90;;;;;;5071583;28;20057;-57
2023/01/21 09:45:00;;;;;;;63.72;31.65;;;0.80;99.90;;;;;;5065096;28;20783;-55
2023/01/21 09:47:29;;;;;;;63.60;31.58;;;0.80;99.90;;;;;;5070189;28;20121;-55
2023/01/21 09:49:57;;;;;;;72.47;33.90;;;0.80;99.90;;;;;;5071507;28;20457;-57
2023/01/21 09:52:26;;;;;;;75.15;35.22;;;0.80;99.90;;;;;;5079535;28;20137;-58
2023/01/21 09:54:53;;;;;;;63.65;33.15;;;0.80;99.90;;;;;;5061308;28;20056;-57
2023/01/21 09:57:42;;;;;;;60.63;30.45;;;0.80;99.90;;;;;;5065976;28;20079;-56
2023/01/21 10:00:28;;;;;;;61.50;30.17;;;0.80;99.90;;;;;;5058985;28;20087;-48
2023/01/21 10:02:59;;;;;;;63.78;31.08;;;0.80;99.90;;;;;;5067229;28;20125;-56
2023/01/21 10:05:39;;;;;;;69.82;35.05;;;0.90;99.90;;;;;;5061100;28;20049;-55
2023/01/21 10:08:09;;;;;;;66.88;33.30;;;0.90;99.90;;;;;;5054763;28;20373;-55
2023/01/21 10:10:38;;;;;;;71.68;34.33;;;0.90;99.90;;;;;;5052878;28;20073;-54
2023/01/21 10:13:14;;;;;;;66.75;34.25;;;0.90;99.90;;;;;;5070225;28;20052;-56
2023/01/21 10:15:47;;;;;;;64.75;32.63;;;1.00;99.90;;;;;;5058584;28;20048;-56
2023/01/21 10:18:14;;;;;;;71.68;39.58;;;1.00;99.90;;;;;;5065775;28;20045;-54
2023/01/21 10:20:44;;;;;;;67.53;34.20;;;1.00;99.90;;;;;;5053987;28;20084;-52
2023/01/21 10:23:14;;;;;;;65.43;32.28;;;1.00;99.90;;;;;;5053240;28;20049;-56
2023/01/21 10:25:40;;;;;;;66.20;33.63;;;1.00;99.90;;;;;;5066229;28;20041;-55
2023/01/21 10:28:12;;;;;;;71.15;34.97;;;1.00;99.90;;;;;;5053515;28;20052;-56
2023/01/21 10:30:42;;;;;;;69.53;34.47;;;1.00;99.90;;;;;;5060893;28;20052;-55
2023/01/21 10:33:17;;;;;;;66.88;33.75;;;1.00;99.90;;;;;;5071857;28;20102;-55
2023/01/21 10:35:54;;;;;;;60.78;31.70;;;1.00;99.90;;;;;;5069861;28;20492;-55
2023/01/21 10:38:23;;;;;;;70.68;33.22;;;1.10;99.90;;;;;;5052991;28;20488;-55
2023/01/21 10:40:54;;;;;;;62.33;31.48;;;1.20;99.90;;;;;;5073023;28;20134;-52
2023/01/21 10:43:32;;;;;;;65.72;33.47;;;1.30;99.90;;;;;;5066885;28;20105;-54
2023/01/21 10:46:02;;;;;;;63.33;31.67;;;1.30;99.90;;;;;;5062795;28;20052;-55
2023/01/21 10:48:33;;;;;;;63.05;31.80;;;1.30;99.90;;;;;;5052585;28;20045;-57
2023/01/21 10:51:04;;;;;;;63.20;32.60;;;1.30;99.90;;;;;;5054641;28;20052;-55
2023/01/21 10:53:33;;;;;;;55.88;30.90;;;1.40;99.90;;;;;;5055765;28;20056;-44
2023/01/21 10:56:05;;;;;;;65.05;32.50;;;1.40;99.90;;;;;;5059709;28;20189;-57
2023/01/21 10:58:35;;;;;;;66.00;33.38;;;1.40;99.90;;;;;;5052537;28;20084;-56
2023/01/21 11:01:03;;;;;;;67.78;33.72;;;1.50;99.90;;;;;;5052755;28;20480;-54
2023/01/21 11:03:32;;;;;;;66.30;32.80;;;1.60;99.90;;;;;;5066101;28;20080;-56
2023/01/21 11:05:59;;;;;;;68.57;34.45;;;1.60;99.90;;;;;;5057450;28;20052;-56
2023/01/21 11:08:26;;;;;;;64.97;33.83;;;1.80;99.90;;;;;;5072818;28;20129;-53
2023/01/21 11:10:54;;;;;;;65.30;34.03;;;1.80;99.90;;;;;;5055729;28;20049;-50
2023/01/21 11:13:21;;;;;;;66.82;34.35;;;1.90;99.90;;;;;;5066565;28;20094;-49
2023/01/21 11:15:51;;;;;;;66.55;32.80;;;1.90;99.90;;;;;;5060433;28;20088;-52
2023/01/21 11:18:29;;;;;;;62.13;32.75;;;2.00;99.90;;;;;;5057464;28;20048;-56
2023/01/21 11:20:59;;;;;;;62.80;33.45;;;2.10;99.90;;;;;;5071652;28;20079;-54
2023/01/21 11:23:27;;;;;;;63.67;34.20;;;2.20;99.90;;;;;;5064704;28;20048;-55
2023/01/21 11:26:01;;;;;;;62.78;32.63;;;2.30;99.90;;;;;;5060795;28;20057;-56
2023/01/21 11:28:29;;;;;;;59.08;32.22;;;2.40;99.90;;;;;;5053766;28;20055;-56
2023/01/21 11:31:06;;;;;;;59.28;30.70;;;2.50;99.90;;;;;;5065266;28;20070;-55
2023/01/21 11:33:32;;;;;;;60.88;32.72;;;2.60;99.90;;;;;;5051504;28;20539;-58
2023/01/21 11:36:09;;;;;;;54.75;30.20;;;2.70;99.90;;;;;;5054623;28;20091;-58
2023/01/21 11:38:36;;;;;;;52.28;29.73;;;2.80;99.90;;;;;;5063143;28;20139;-57
2023/01/21 11:41:04;;;;;;;51.75;29.75;;;2.90;99.90;;;;;;5056850;28;20072;-56
2023/01/21 11:43:35;;;;;;;49.33;27.58;;;2.90;99.90;;;;;;5062740;28;20135;-58
2023/01/21 11:46:22;;;;;;;52.50;29.02;;;3.00;99.90;;;;;;5059204;28;20045;-56
2023/01/21 11:48:49;;;;;;;51.50;28.48;;;3.20;99.90;;;;;;5060759;28;20076;-51
2023/01/21 11:51:16;;;;;;;47.35;27.60;;;3.20;99.90;;;;;;5060089;28;20084;-53
2023/01/21 11:53:45;;;;;;;47.78;27.45;;;3.30;99.90;;;;;;5065950;28;20484;-53
2023/01/21 11:56:12;;;;;;;47.35;27.63;;;3.40;99.90;;;;;;5065062;28;20044;-54
2023/01/21 11:58:40;;;;;;;44.60;25.48;;;3.40;99.90;;;;;;5058991;28;20076;-56
2023/01/21 12:01:07;;;;;;;43.55;25.70;;;3.50;99.90;;;;;;5055197;28;20098;-56
2023/01/21 12:03:36;;;;;;;43.70;26.48;;;3.50;99.90;;;;;;5067148;28;20100;-50
2023/01/21 12:06:03;;;;;;;46.13;26.27;;;3.60;99.90;;;;;;5072843;28;20438;-57
2023/01/21 12:08:31;;;;;;;46.15;25.77;;;3.60;99.90;;;;;;5068923;28;20131;-57
2023/01/21 12:11:00;;;;;;;45.75;24.70;;;3.70;99.90;;;;;;5064297;28;20106;-56
2023/01/21 12:13:29;;;;;;;42.03;24.50;;;3.70;99.90;;;;;;5072783;28;20049;-55
2023/01/21 12:16:06;;;;;;;41.45;25.00;;;3.70;99.90;;;;;;5064513;28;20057;-50
2023/01/21 12:18:42;;;;;;;40.03;23.77;;;3.70;99.90;;;;;;5061309;28;20499;-58
2023/01/21 12:21:12;;;;;;;43.28;26.00;;;3.60;99.90;;;;;;5058779;28;20439;-56
2023/01/21 12:23:48;;;;;;;43.70;25.55;;;3.70;99.90;;;;;;5062099;28;20044;-54
2023/01/21 12:26:22;;;;;;;46.20;25.88;;;3.70;99.90;;;;;;5074202;28;20550;-54
2023/01/21 12:29:02;;;;;;;44.15;26.50;;;3.70;99.90;;;;;;5057871;28;20406;-57
2023/01/21 12:31:31;;;;;;;44.15;26.95;;;3.70;99.90;;;;;;5069466;28;20122;-57
2023/01/21 12:34:02;;;;;;;45.28;27.05;;;3.60;99.90;;;;;;5059314;28;20045;-57
2023/01/21 12:36:31;;;;;;;37.85;23.13;;;3.60;99.90;;;;;;5055295;28;20101;-57
2023/01/21 12:39:10;;;;;;;35.75;20.85;;;3.50;99.90;;;;;;5054382;28;20084;-57
2023/01/21 12:41:37;;;;;;;33.67;20.00;;;3.50;99.90;;;;;;5055506;28;20053;-58
2023/01/21 12:44:17;;;;;;;28.88;18.38;;;3.40;99.90;;;;;;5055855;28;20053;-57
2023/01/21 12:46:45;;;;;;;34.00;20.77;;;3.40;99.90;;;;;;5062724;28;20053;-57
2023/01/21 12:49:15;;;;;;;32.67;19.70;;;3.40;99.90;;;;;;5056922;28;20072;-57